M/V MSC Ronit — 3ERX9 — position and weather

sailwx.info

Track history (hours):
 
Tides and Currents Weather Stations Pressure Air Temp Water Temp Dewpoint Dewpoint Depression Visibility Wind Speed Wind Dir Waves Ship Positions

M/V MSC Ronit

Last reported at 2018-Jun-13 17:22 UTC. Time now 2018-Jun-23 02:43 UTC.
Position S 24°37' W 046°29'.
Warning: this ship's position is 9 days out of date.

Length 176 m; draft 7 m.

Type: Ship (hazmat cat A). MMSI: 370204000.

Date/timePositionNaut miles runAvg speedWind from/ knotsBaromVisibWave heightAir tempDewpointWater temp
2018-Jun-13 17:22S 24°37' W 046°29'513.2
2018-Jun-13 17:00S 24°32' W 046°29'612.6
2018-Jun-13 16:30S 24°26' W 046°28'712.7
2018-Jun-13 15:58S 24°19' W 046°26'613.2
2018-Jun-13 15:30S 24°13' W 046°24'713.8
2018-Jun-13 15:00S 24°06' W 046°23'612.1
2018-Jun-13 14:29S 24°00' W 046°20'3 0.1
2018-Jun-12 14:31S 23°58' W 046°18'0 8.9
2018-Jun-12 14:30S 23°58' W 046°18'3 5.7
2018-Jun-12 14:00S 23°60' W 046°20'3 6.4
2018-Jun-12 13:30S 24°03' W 046°21'3 5.4
2018-Jun-12 13:00S 24°05' W 046°22'5 9.8
2018-Jun-12 12:30S 24°10' W 046°24'510.0
2018-Jun-12 12:00S 24°15' W 046°25'510.4
2018-Jun-12 11:30S 24°20' W 046°26'510.0
2018-Jun-12 11:00S 24°25' W 046°28'5 9.9
2018-Jun-12 10:30S 24°30' W 046°28'510.2
2018-Jun-12 10:00S 24°35' W 046°28'510.3
2018-Jun-12 09:29S 24°40' W 046°29'5 9.9
2018-Jun-12 09:00S 24°45' W 046°29'510.5
2018-Jun-12 08:30S 24°50' W 046°29'  
Track history (hours):
 
Tides and Currents Weather Stations Pressure Air Temp Water Temp Dewpoint Dewpoint Depression Visibility Wind Speed Wind Dir Waves Ship Positions

M/V MSC Ronit

Last reported at 2018-Jun-13 17:22 UTC. Time now 2018-Jun-23 02:43 UTC.
Position S 24°37' W 046°29'.
Warning: this ship's position is 9 days out of date.

Length 176 m; draft 7 m.

Type: Ship (hazmat cat A). MMSI: 370204000.

Date/timePositionNaut miles runAvg speedWind from/ knotsBaromVisibWave heightAir tempDewpointWater temp
2018-Jun-13 17:22S 24°37' W 046°29'513.2
2018-Jun-13 17:00S 24°32' W 046°29'612.6
2018-Jun-13 16:30S 24°26' W 046°28'712.7
2018-Jun-13 15:58S 24°19' W 046°26'613.2
2018-Jun-13 15:30S 24°13' W 046°24'713.8
2018-Jun-13 15:00S 24°06' W 046°23'612.1
2018-Jun-13 14:29S 24°00' W 046°20'3 0.1
2018-Jun-12 14:31S 23°58' W 046°18'0 8.9
2018-Jun-12 14:30S 23°58' W 046°18'3 5.7
2018-Jun-12 14:00S 23°60' W 046°20'3 6.4
2018-Jun-12 13:30S 24°03' W 046°21'3 5.4
2018-Jun-12 13:00S 24°05' W 046°22'5 9.8
2018-Jun-12 12:30S 24°10' W 046°24'510.0
2018-Jun-12 12:00S 24°15' W 046°25'510.4
2018-Jun-12 11:30S 24°20' W 046°26'510.0
2018-Jun-12 11:00S 24°25' W 046°28'5 9.9
2018-Jun-12 10:30S 24°30' W 046°28'510.2
2018-Jun-12 10:00S 24°35' W 046°28'510.3
2018-Jun-12 09:29S 24°40' W 046°29'5 9.9
2018-Jun-12 09:00S 24°45' W 046°29'510.5
2018-Jun-12 08:30S 24°50' W 046°29'  

Dump ship's entire track history